Station History

Weather Underground - logo

Station Historical Data
Daily Summary for March 7, 2018 Units:  Both    English   Metric
« Previous Day
Next Day »
Daily Weekly Monthly Yearly Custom
  High: Low: Average:
Temperature: 71.9 °F /  22.2 °C 45.4 °F /  7.4 °C 55.1 °F /  12.8 °C
Dew Point: 47.7 °F /  8.7 °C 40.3 °F /  4.6 °C 43.4 °F /  6.3 °C
Humidity: 89 % 32 % 68 %
Wind Speed: 5.8 mph /  9.3 km/h - 0.5 mph /  0.8 km/h
Wind Gust: 5.8 mph /  9.3 km/h - -
Wind:- - WSW
Pressure: 30.10 in /  1019.2 hPa 29.98 in /  1015.1 hPa -
Precipitation: 0.00 in /  0 mm    
Historical Graphs
 
 
Tabular Data for March 7, 2018
Time Temperature Dew Point Pressure Wind Wind Speed Wind Gust Humidity Rainfall Rate (Hourly)
00:00 46.1 °F /  7.8 °C 42.1 °F /  5.6 °C 30.07 in /  1018.2 hPa SE 1.2 mph /  1.9 km/h 1.2 mph /  1.9 km/h 86 % 0.00 in /  0 mm
00:05 46.0 °F /  7.8 °C 42.0 °F /  5.6 °C 30.08 in /  1018.5 hPa Calm     86 % 0.00 in /  0 mm
00:10 45.8 °F /  7.7 °C 42.2 °F /  5.7 °C 30.08 in /  1018.5 hPa Calm     87 % 0.00 in /  0 mm
00:15 45.8 °F /  7.7 °C 42.2 °F /  5.7 °C 30.08 in /  1018.5 hPa Calm     87 % 0.00 in /  0 mm
00:20 45.8 °F /  7.7 °C 42.2 °F /  5.7 °C 30.08 in /  1018.5 hPa Calm     87 % 0.00 in /  0 mm
00:25 45.9 °F /  7.7 °C 42.2 °F /  5.7 °C 30.07 in /  1018.2 hPa Calm     87 % 0.00 in /  0 mm
00:30 45.9 °F /  7.7 °C 42.2 °F /  5.7 °C 30.07 in /  1018.2 hPa Calm     87 % 0.00 in /  0 mm
00:35 45.9 °F /  7.7 °C 42.2 °F /  5.7 °C 30.07 in /  1018.2 hPa Calm     87 % 0.00 in /  0 mm
00:40 45.9 °F /  7.7 °C 41.9 °F /  5.5 °C 30.07 in /  1018.2 hPa SE 1.2 mph /  1.9 km/h   86 % 0.00 in /  0 mm
00:45 45.9 °F /  7.7 °C 41.9 °F /  5.5 °C 30.07 in /  1018.2 hPa Calm     86 % 0.00 in /  0 mm
00:50 45.8 °F /  7.7 °C 41.9 °F /  5.5 °C 30.07 in /  1018.2 hPa Calm     86 % 0.00 in /  0 mm
00:55 45.7 °F /  7.6 °C 41.8 °F /  5.4 °C 30.06 in /  1017.8 hPa Calm     86 % 0.00 in /  0 mm
01:00 45.5 °F /  7.5 °C 41.6 °F /  5.3 °C 30.06 in /  1017.8 hPa Calm     86 % 0.00 in /  0 mm
01:05 45.5 °F /  7.5 °C 41.6 °F /  5.3 °C 30.06 in /  1017.8 hPa Calm     86 % 0.00 in /  0 mm
01:10 45.5 °F /  7.5 °C 41.3 °F /  5.2 °C 30.07 in /  1018.2 hPa Calm   0.1 mph /  0.2 km/h 85 % 0.00 in /  0 mm
01:15 45.6 °F /  7.6 °C 41.4 °F /  5.2 °C 30.07 in /  1018.2 hPa Calm     85 % 0.00 in /  0 mm
01:20 45.7 °F /  7.6 °C 41.1 °F /  5.1 °C 30.07 in /  1018.2 hPa Calm     84 % 0.00 in /  0 mm
01:25 45.6 °F /  7.6 °C 41.0 °F /  5 °C 30.07 in /  1018.2 hPa Calm     84 % 0.00 in /  0 mm
01:30 45.5 °F /  7.5 °C 41.3 °F /  5.2 °C 30.07 in /  1018.2 hPa Calm     85 % 0.00 in /  0 mm
01:36 45.5 °F /  7.5 °C 41.3 °F /  5.2 °C 30.07 in /  1018.2 hPa Calm     85 % 0.00 in /  0 mm
01:41 45.7 °F /  7.6 °C 41.4 °F /  5.2 °C 30.07 in /  1018.2 hPa Calm     85 % 0.00 in /  0 mm
01:46 45.9 °F /  7.7 °C 41.3 °F /  5.2 °C 30.07 in /  1018.2 hPa Calm     84 % 0.00 in /  0 mm
01:51 45.9 °F /  7.7 °C 41.6 °F /  5.3 °C 30.07 in /  1018.2 hPa Calm     85 % 0.00 in /  0 mm
01:56 46.1 °F /  7.8 °C 41.5 °F /  5.3 °C 30.06 in /  1017.8 hPa SE 1.2 mph /  1.9 km/h 1.2 mph /  1.9 km/h 84 % 0.00 in /  0 mm
02:01 46.3 °F /  7.9 °C 41.7 °F /  5.4 °C 30.06 in /  1017.8 hPa SE 1.2 mph /  1.9 km/h 1.2 mph /  1.9 km/h 84 % 0.00 in /  0 mm
02:06 46.4 °F /  8 °C 41.5 °F /  5.3 °C 30.06 in /  1017.8 hPa ESE 5.8 mph /  9.3 km/h 5.8 mph /  9.3 km/h 83 % 0.00 in /  0 mm
02:11 46.4 °F /  8 °C 41.5 °F /  5.3 °C 30.05 in /  1017.5 hPa Calm     83 % 0.00 in /  0 mm
02:16 46.4 °F /  8 °C 41.8 °F /  5.4 °C 30.06 in /  1017.8 hPa Calm     84 % 0.00 in /  0 mm
02:21 46.4 °F /  8 °C 41.8 °F /  5.4 °C 30.06 in /  1017.8 hPa Calm     84 % 0.00 in /  0 mm
02:26 46.3 °F /  7.9 °C 41.7 °F /  5.4 °C 30.05 in /  1017.5 hPa Calm     84 % 0.00 in /  0 mm
02:31 46.2 °F /  7.9 °C 41.6 °F /  5.3 °C 30.05 in /  1017.5 hPa Calm     84 % 0.00 in /  0 mm
02:36 46.5 °F /  8.1 °C 41.9 °F /  5.5 °C 30.05 in /  1017.5 hPa Calm     84 % 0.00 in /  0 mm
02:41 46.8 °F /  8.2 °C 42.2 °F /  5.7 °C 30.05 in /  1017.5 hPa Calm     84 % 0.00 in /  0 mm
02:46 46.8 °F /  8.2 °C 42.2 °F /  5.7 °C 30.05 in /  1017.5 hPa Calm     84 % 0.00 in /  0 mm
02:51 46.9 °F /  8.3 °C 42.3 °F /  5.7 °C 30.05 in /  1017.5 hPa Calm     84 % 0.00 in /  0 mm
02:56 46.9 °F /  8.3 °C 42.3 °F /  5.7 °C 30.04 in /  1017.2 hPa Calm     84 % 0.00 in /  0 mm
03:01 47.3 °F /  8.5 °C 42.4 °F /  5.8 °C 30.05 in /  1017.5 hPa Calm     83 % 0.00 in /  0 mm
03:06 47.7 °F /  8.7 °C 42.5 °F /  5.8 °C 30.05 in /  1017.5 hPa Calm     82 % 0.00 in /  0 mm
03:11 48.0 °F /  8.9 °C 42.8 °F /  6 °C 30.05 in /  1017.5 hPa Calm     82 % 0.00 in /  0 mm
03:16 48.3 °F /  9.1 °C 42.7 °F /  5.9 °C 30.04 in /  1017.2 hPa Calm     81 % 0.00 in /  0 mm
03:21 48.4 °F /  9.1 °C 42.5 °F /  5.8 °C 30.04 in /  1017.2 hPa Calm     80 % 0.00 in /  0 mm
03:26 48.4 °F /  9.1 °C 42.5 °F /  5.8 °C 30.04 in /  1017.2 hPa Calm     80 % 0.00 in /  0 mm
03:31 48.3 °F /  9.1 °C 42.4 °F /  5.8 °C 30.04 in /  1017.2 hPa Calm     80 % 0.00 in /  0 mm
03:36 48.3 °F /  9.1 °C 42.4 °F /  5.8 °C 30.04 in /  1017.2 hPa Calm     80 % 0.00 in /  0 mm
03:41 48.3 °F /  9.1 °C 42.4 °F /  5.8 °C 30.04 in /  1017.2 hPa Calm     80 % 0.00 in /  0 mm
03:46 48.7 °F /  9.3 °C 42.5 °F /  5.8 °C 30.03 in /  1016.8 hPa Calm     79 % 0.00 in /  0 mm
03:47 48.7 °F /  9.3 °C 42.5 °F /  5.8 °C 30.03 in /  1016.8 hPa Calm     79 % 0.00 in /  0 mm
03:52 49.0 °F /  9.4 °C 42.4 °F /  5.8 °C 30.03 in /  1016.8 hPa ESE 1.2 mph /  1.9 km/h 1.2 mph /  1.9 km/h 78 % 0.00 in /  0 mm
03:57 49.4 °F /  9.7 °C 42.1 °F /  5.6 °C 30.03 in /  1016.8 hPa NW 1.2 mph /  1.9 km/h 1.2 mph /  1.9 km/h 76 % 0.00 in /  0 mm
04:02 49.9 °F /  9.9 °C 42.3 °F /  5.7 °C 30.03 in /  1016.8 hPa Calm     75 % 0.00 in /  0 mm
04:07 50.4 °F /  10.2 °C 42.1 °F /  5.6 °C 30.04 in /  1017.2 hPa NNW 1.2 mph /  1.9 km/h 1.2 mph /  1.9 km/h 73 % 0.00 in /  0 mm
04:12 50.7 °F /  10.4 °C 42.0 °F /  5.6 °C 30.04 in /  1017.2 hPa NNW 1.0 mph /  1.6 km/h 1.0 mph /  1.6 km/h 72 % 0.00 in /  0 mm
04:17 50.7 °F /  10.4 °C 42.4 °F /  5.8 °C 30.04 in /  1017.2 hPa Calm     73 % 0.00 in /  0 mm
04:22 50.5 °F /  10.3 °C 42.2 °F /  5.7 °C 30.04 in /  1017.2 hPa Calm     73 % 0.00 in /  0 mm
04:27 50.2 °F /  10.1 °C 42.2 °F /  5.7 °C 30.03 in /  1016.8 hPa Calm     74 % 0.00 in /  0 mm
04:32 50.2 °F /  10.1 °C 41.9 °F /  5.5 °C 30.04 in /  1017.2 hPa NW 1.2 mph /  1.9 km/h   73 % 0.00 in /  0 mm
04:37 50.3 °F /  10.2 °C 41.6 °F /  5.3 °C 30.04 in /  1017.2 hPa Calm     72 % 0.00 in /  0 mm
04:42 50.4 °F /  10.2 °C 41.3 °F /  5.2 °C 30.03 in /  1016.8 hPa Calm     71 % 0.00 in /  0 mm
04:47 50.4 °F /  10.2 °C 41.3 °F /  5.2 °C 30.03 in /  1016.8 hPa NW 1.2 mph /  1.9 km/h   71 % 0.00 in /  0 mm
04:52 50.4 °F /  10.2 °C 41.3 °F /  5.2 °C 30.03 in /  1016.8 hPa NNW 1.2 mph /  1.9 km/h   71 % 0.00 in /  0 mm
04:57 50.4 °F /  10.2 °C 41.3 °F /  5.2 °C 30.03 in /  1016.8 hPa Calm   0.1 mph /  0.2 km/h 71 % 0.00 in /  0 mm
05:02 50.4 °F /  10.2 °C 41.3 °F /  5.2 °C 30.03 in /  1016.8 hPa WNW 1.2 mph /  1.9 km/h   71 % 0.00 in /  0 mm
05:07 50.3 °F /  10.2 °C 42.0 °F /  5.6 °C 30.03 in /  1016.8 hPa Calm     73 % 0.00 in /  0 mm
05:12 49.8 °F /  9.9 °C 42.5 °F /  5.8 °C 30.03 in /  1016.8 hPa Calm     76 % 0.00 in /  0 mm
05:17 49.0 °F /  9.4 °C 42.1 °F /  5.6 °C 30.03 in /  1016.8 hPa Calm     77 % 0.00 in /  0 mm
05:22 48.2 °F /  9 °C 42.3 °F /  5.7 °C 30.04 in /  1017.2 hPa Calm     80 % 0.00 in /  0 mm
05:27 47.5 °F /  8.6 °C 42.3 °F /  5.7 °C 30.05 in /  1017.5 hPa Calm     82 % 0.00 in /  0 mm
05:32 47.1 °F /  8.4 °C 42.8 °F /  6 °C 30.05 in /  1017.5 hPa Calm     85 % 0.00 in /  0 mm
05:37 46.9 °F /  8.3 °C 43.2 °F /  6.2 °C 30.05 in /  1017.5 hPa Calm     87 % 0.00 in /  0 mm
05:42 46.5 °F /  8.1 °C 42.5 °F /  5.8 °C 30.06 in /  1017.8 hPa Calm     86 % 0.00 in /  0 mm
05:47 46.2 °F /  7.9 °C 42.5 °F /  5.8 °C 30.06 in /  1017.8 hPa Calm     87 % 0.00 in /  0 mm
05:52 46.1 °F /  7.8 °C 42.4 °F /  5.8 °C 30.06 in /  1017.8 hPa Calm     87 % 0.00 in /  0 mm
05:57 46.0 °F /  7.8 °C 42.3 °F /  5.7 °C 30.06 in /  1017.8 hPa Calm   0.1 mph /  0.2 km/h 87 % 0.00 in /  0 mm
06:02 46.0 °F /  7.8 °C 42.6 °F /  5.9 °C 30.06 in /  1017.8 hPa Calm     88 % 0.00 in /  0 mm
06:07 45.7 °F /  7.6 °C 42.3 °F /  5.7 °C 30.07 in /  1018.2 hPa SE 1.2 mph /  1.9 km/h 1.2 mph /  1.9 km/h 88 % 0.00 in /  0 mm
06:12 45.5 °F /  7.5 °C 42.4 °F /  5.8 °C 30.07 in /  1018.2 hPa SE 1.2 mph /  1.9 km/h   89 % 0.00 in /  0 mm
06:17 45.5 °F /  7.5 °C 42.4 °F /  5.8 °C 30.07 in /  1018.2 hPa Calm     89 % 0.00 in /  0 mm
06:22 45.4 °F /  7.4 °C 42.3 °F /  5.7 °C 30.07 in /  1018.2 hPa Calm     89 % 0.00 in /  0 mm
06:27 45.5 °F /  7.5 °C 42.4 °F /  5.8 °C 30.07 in /  1018.2 hPa Calm     89 % 0.00 in /  0 mm
06:32 45.5 °F /  7.5 °C 42.4 °F /  5.8 °C 30.07 in /  1018.2 hPa SSE 1.2 mph /  1.9 km/h 1.2 mph /  1.9 km/h 89 % 0.00 in /  0 mm
06:37 45.6 °F /  7.6 °C 42.5 °F /  5.8 °C 30.08 in /  1018.5 hPa Calm     89 % 0.00 in /  0 mm
06:42 45.7 °F /  7.6 °C 42.6 °F /  5.9 °C 30.08 in /  1018.5 hPa Calm     89 % 0.00 in /  0 mm
06:47 45.8 °F /  7.7 °C 42.4 °F /  5.8 °C 30.08 in /  1018.5 hPa Calm     88 % 0.00 in /  0 mm
06:52 45.9 °F /  7.7 °C 42.5 °F /  5.8 °C 30.09 in /  1018.8 hPa Calm     88 % 0.00 in /  0 mm
06:57 46.1 °F /  7.8 °C 42.7 °F /  5.9 °C 30.09 in /  1018.8 hPa Calm     88 % 0.00 in /  0 mm
07:02 46.2 °F /  7.9 °C 42.5 °F /  5.8 °C 30.09 in /  1018.8 hPa Calm     87 % 0.00 in /  0 mm
07:08 46.4 °F /  8 °C 42.7 °F /  5.9 °C 30.09 in /  1018.8 hPa Calm     87 % 0.00 in /  0 mm
07:13 46.5 °F /  8.1 °C 42.8 °F /  6 °C 30.10 in /  1019.2 hPa Calm     87 % 0.00 in /  0 mm
07:18 46.6 °F /  8.1 °C 42.9 °F /  6.1 °C 30.10 in /  1019.2 hPa Calm     87 % 0.00 in /  0 mm
07:23 46.7 °F /  8.2 °C 43.0 °F /  6.1 °C 30.10 in /  1019.2 hPa Calm     87 % 0.00 in /  0 mm
07:28 46.8 °F /  8.2 °C 43.1 °F /  6.2 °C 30.10 in /  1019.2 hPa Calm     87 % 0.00 in /  0 mm
07:33 46.9 °F /  8.3 °C 43.2 °F /  6.2 °C 30.10 in /  1019.2 hPa Calm     87 % 0.00 in /  0 mm
07:38 47.1 °F /  8.4 °C 43.1 °F /  6.2 °C 30.10 in /  1019.2 hPa Calm     86 % 0.00 in /  0 mm
07:43 47.4 °F /  8.6 °C 43.4 °F /  6.3 °C 30.10 in /  1019.2 hPa Calm     86 % 0.00 in /  0 mm
07:48 47.5 °F /  8.6 °C 43.5 °F /  6.4 °C 30.09 in /  1018.8 hPa Calm     86 % 0.00 in /  0 mm
07:53 47.6 °F /  8.7 °C 43.6 °F /  6.4 °C 30.09 in /  1018.8 hPa SE 1.2 mph /  1.9 km/h   86 % 0.00 in /  0 mm
07:58 47.9 °F /  8.8 °C 43.6 °F /  6.4 °C 30.09 in /  1018.8 hPa Calm     85 % 0.00 in /  0 mm
08:03 48.1 °F /  8.9 °C 43.8 °F /  6.6 °C 30.09 in /  1018.8 hPa Calm     85 % 0.00 in /  0 mm
08:08 48.3 °F /  9.1 °C 43.7 °F /  6.5 °C 30.09 in /  1018.8 hPa Calm     84 % 0.00 in /  0 mm
08:13 48.5 °F /  9.2 °C 43.9 °F /  6.6 °C 30.09 in /  1018.8 hPa Calm     84 % 0.00 in /  0 mm
08:18 48.8 °F /  9.3 °C 44.2 °F /  6.8 °C 30.09 in /  1018.8 hPa Calm     84 % 0.00 in /  0 mm
08:23 49.0 °F /  9.4 °C 44.4 °F /  6.9 °C 30.10 in /  1019.2 hPa Calm     84 % 0.00 in /  0 mm
08:28 49.2 °F /  9.6 °C 43.9 °F /  6.6 °C 30.10 in /  1019.2 hPa Calm     82 % 0.00 in /  0 mm
08:33 49.4 °F /  9.7 °C 44.1 °F /  6.7 °C 30.10 in /  1019.2 hPa Calm     82 % 0.00 in /  0 mm
08:38 49.7 °F /  9.8 °C 44.1 °F /  6.7 °C 30.10 in /  1019.2 hPa Calm     81 % 0.00 in /  0 mm
08:43 49.9 °F /  9.9 °C 43.6 °F /  6.4 °C 30.10 in /  1019.2 hPa SE 1.0 mph /  1.6 km/h 1.0 mph /  1.6 km/h 79 % 0.00 in /  0 mm
08:48 50.3 °F /  10.2 °C 44.4 °F /  6.9 °C 30.10 in /  1019.2 hPa Calm     80 % 0.00 in /  0 mm
08:53 50.5 °F /  10.3 °C 44.2 °F /  6.8 °C 30.10 in /  1019.2 hPa Calm     79 % 0.00 in /  0 mm
08:58 50.8 °F /  10.4 °C 43.8 °F /  6.6 °C 30.09 in /  1018.8 hPa Calm     77 % 0.00 in /  0 mm
09:03 51.1 °F /  10.6 °C 44.5 °F /  6.9 °C 30.09 in /  1018.8 hPa Calm     78 % 0.00 in /  0 mm
09:08 51.3 °F /  10.7 °C 44.3 °F /  6.8 °C 30.08 in /  1018.5 hPa Calm     77 % 0.00 in /  0 mm
09:13 51.6 °F /  10.9 °C 44.6 °F /  7 °C 30.08 in /  1018.5 hPa Calm     77 % 0.00 in /  0 mm
09:18 52.0 °F /  11.1 °C 44.0 °F /  6.7 °C 30.06 in /  1017.8 hPa Calm     74 % 0.00 in /  0 mm
09:23 52.5 °F /  11.4 °C 44.1 °F /  6.7 °C 30.06 in /  1017.8 hPa Calm     73 % 0.00 in /  0 mm
09:28 53.1 °F /  11.7 °C 44.3 °F /  6.8 °C 30.06 in /  1017.8 hPa SE 2.3 mph /  3.7 km/h 2.3 mph /  3.7 km/h 72 % 0.00 in /  0 mm
09:33 53.9 °F /  12.2 °C 44.7 °F /  7.1 °C 30.07 in /  1018.2 hPa Calm     71 % 0.00 in /  0 mm
09:38 54.6 °F /  12.6 °C 44.6 °F /  7 °C 30.06 in /  1017.8 hPa NW 2.0 mph /  3.2 km/h   69 % 0.00 in /  0 mm
09:43 55.3 °F /  12.9 °C 45.3 °F /  7.4 °C 30.07 in /  1018.2 hPa Calm     69 % 0.00 in /  0 mm
09:48 56.1 °F /  13.4 °C 45.7 °F /  7.6 °C 30.08 in /  1018.5 hPa NW 2.3 mph /  3.7 km/h 2.3 mph /  3.7 km/h 68 % 0.00 in /  0 mm
09:53 56.4 °F /  13.6 °C 45.2 °F /  7.3 °C 30.08 in /  1018.5 hPa NNW 1.2 mph /  1.9 km/h 1.2 mph /  1.9 km/h 66 % 0.00 in /  0 mm
09:58 56.6 °F /  13.7 °C 45.4 °F /  7.4 °C 30.08 in /  1018.5 hPa NW 1.2 mph /  1.9 km/h 1.2 mph /  1.9 km/h 66 % 0.00 in /  0 mm
10:03 56.8 °F /  13.8 °C 45.2 °F /  7.3 °C 30.09 in /  1018.8 hPa North 2.3 mph /  3.7 km/h 2.3 mph /  3.7 km/h 65 % 0.00 in /  0 mm
10:08 56.6 °F /  13.7 °C 45.8 °F /  7.7 °C 30.09 in /  1018.8 hPa SSE 2.0 mph /  3.2 km/h 2.0 mph /  3.2 km/h 67 % 0.00 in /  0 mm
10:13 56.3 °F /  13.5 °C 46.3 °F /  7.9 °C 30.09 in /  1018.8 hPa Calm     69 % 0.00 in /  0 mm
10:18 56.1 °F /  13.4 °C 46.4 °F /  8 °C 30.09 in /  1018.8 hPa NW 1.0 mph /  1.6 km/h 1.0 mph /  1.6 km/h 70 % 0.00 in /  0 mm
10:23 56.0 °F /  13.3 °C 46.4 °F /  8 °C 30.09 in /  1018.8 hPa SSE 2.3 mph /  3.7 km/h 2.3 mph /  3.7 km/h 70 % 0.00 in /  0 mm
10:28 55.9 °F /  13.3 °C 46.6 °F /  8.1 °C 30.09 in /  1018.8 hPa Calm     71 % 0.00 in /  0 mm
10:33 56.1 °F /  13.4 °C 46.8 °F /  8.2 °C 30.09 in /  1018.8 hPa Calm     71 % 0.00 in /  0 mm
10:38 56.3 °F /  13.5 °C 45.9 °F /  7.7 °C 30.08 in /  1018.5 hPa NW 1.2 mph /  1.9 km/h   68 % 0.00 in /  0 mm
10:43 56.2 °F /  13.4 °C 45.8 °F /  7.7 °C 30.08 in /  1018.5 hPa Calm     68 % 0.00 in /  0 mm
10:48 56.4 °F /  13.6 °C 46.0 °F /  7.8 °C 30.09 in /  1018.8 hPa Calm     68 % 0.00 in /  0 mm
10:53 56.8 °F /  13.8 °C 46.3 °F /  7.9 °C 30.09 in /  1018.8 hPa SE 2.3 mph /  3.7 km/h 2.3 mph /  3.7 km/h 68 % 0.00 in /  0 mm
10:58 57.1 °F /  13.9 °C 46.2 °F /  7.9 °C 30.10 in /  1019.2 hPa ESE 1.2 mph /  1.9 km/h 1.2 mph /  1.9 km/h 67 % 0.00 in /  0 mm
11:03 57.4 °F /  14.1 °C 46.5 °F /  8.1 °C 30.10 in /  1019.2 hPa SE 2.3 mph /  3.7 km/h 2.3 mph /  3.7 km/h 67 % 0.00 in /  0 mm
11:08 57.4 °F /  14.1 °C 46.1 °F /  7.8 °C 30.10 in /  1019.2 hPa East 2.3 mph /  3.7 km/h 2.3 mph /  3.7 km/h 66 % 0.00 in /  0 mm
11:13 57.5 °F /  14.2 °C 46.2 °F /  7.9 °C 30.10 in /  1019.2 hPa South 2.3 mph /  3.7 km/h 2.3 mph /  3.7 km/h 66 % 0.00 in /  0 mm
11:18 57.5 °F /  14.2 °C 46.2 °F /  7.9 °C 30.10 in /  1019.2 hPa ESE 2.3 mph /  3.7 km/h 2.3 mph /  3.7 km/h 66 % 0.00 in /  0 mm
11:23 57.7 °F /  14.3 °C 46.4 °F /  8 °C 30.09 in /  1018.8 hPa SSE 1.2 mph /  1.9 km/h   66 % 0.00 in /  0 mm
11:28 58.1 °F /  14.5 °C 46.4 °F /  8 °C 30.09 in /  1018.8 hPa SE 1.2 mph /  1.9 km/h   65 % 0.00 in /  0 mm
11:33 58.6 °F /  14.8 °C 46.5 °F /  8.1 °C 30.09 in /  1018.8 hPa Calm   0.5 mph /  0.8 km/h 64 % 0.00 in /  0 mm
11:38 59.0 °F /  15 °C 46.8 °F /  8.2 °C 30.09 in /  1018.8 hPa SSE 2.3 mph /  3.7 km/h 2.3 mph /  3.7 km/h 64 % 0.00 in /  0 mm
11:43 59.6 °F /  15.3 °C 47.0 °F /  8.3 °C 30.09 in /  1018.8 hPa ENE 2.3 mph /  3.7 km/h 2.3 mph /  3.7 km/h 63 % 0.00 in /  0 mm
11:48 60.3 °F /  15.7 °C 47.2 °F /  8.4 °C 30.08 in /  1018.5 hPa SE 3.0 mph /  4.8 km/h 3.0 mph /  4.8 km/h 62 % 0.00 in /  0 mm
11:53 61.1 °F /  16.2 °C 46.7 °F /  8.2 °C 30.08 in /  1018.5 hPa SE 3.5 mph /  5.6 km/h 3.5 mph /  5.6 km/h 59 % 0.00 in /  0 mm
11:58 62.0 °F /  16.7 °C 47.0 °F /  8.3 °C 30.08 in /  1018.5 hPa SE 2.3 mph /  3.7 km/h 2.3 mph /  3.7 km/h 58 % 0.00 in /  0 mm
12:03 62.6 °F /  17 °C 46.2 °F /  7.9 °C 30.07 in /  1018.2 hPa ESE 1.2 mph /  1.9 km/h 1.2 mph /  1.9 km/h 55 % 0.00 in /  0 mm
12:08 63.2 °F /  17.3 °C 45.3 °F /  7.4 °C 30.07 in /  1018.2 hPa East 1.0 mph /  1.6 km/h   52 % 0.00 in /  0 mm
12:14 63.7 °F /  17.6 °C 44.7 °F /  7.1 °C 30.07 in /  1018.2 hPa Calm     50 % 0.00 in /  0 mm
12:19 64.3 °F /  17.9 °C 45.3 °F /  7.4 °C 30.06 in /  1017.8 hPa ESE 1.2 mph /  1.9 km/h 1.2 mph /  1.9 km/h 50 % 0.00 in /  0 mm
12:24 64.8 °F /  18.2 °C 45.7 °F /  7.6 °C 30.06 in /  1017.8 hPa Calm     50 % 0.00 in /  0 mm
12:29 65.3 °F /  18.5 °C 45.6 °F /  7.6 °C 30.06 in /  1017.8 hPa SSE 2.3 mph /  3.7 km/h 2.3 mph /  3.7 km/h 49 % 0.00 in /  0 mm
12:34 65.6 °F /  18.7 °C 44.8 °F /  7.1 °C 30.06 in /  1017.8 hPa Calm     47 % 0.00 in /  0 mm
12:39 66.2 °F /  19 °C 44.2 °F /  6.8 °C 30.06 in /  1017.8 hPa Calm     45 % 0.00 in /  0 mm
12:44 66.4 °F /  19.1 °C 43.8 °F /  6.6 °C 30.05 in /  1017.5 hPa NW 2.0 mph /  3.2 km/h 2.0 mph /  3.2 km/h 44 % 0.00 in /  0 mm
12:49 66.4 °F /  19.1 °C 43.2 °F /  6.2 °C 30.05 in /  1017.5 hPa NW 2.3 mph /  3.7 km/h 2.3 mph /  3.7 km/h 43 % 0.00 in /  0 mm
12:54 66.6 °F /  19.2 °C 44.0 °F /  6.7 °C 30.04 in /  1017.2 hPa NW 1.2 mph /  1.9 km/h 1.2 mph /  1.9 km/h 44 % 0.00 in /  0 mm
12:59 66.7 °F /  19.3 °C 44.1 °F /  6.7 °C 30.04 in /  1017.2 hPa WNW 1.2 mph /  1.9 km/h   44 % 0.00 in /  0 mm
13:04 67.1 °F /  19.5 °C 42.6 °F /  5.9 °C 30.03 in /  1016.8 hPa WNW 1.2 mph /  1.9 km/h   41 % 0.00 in /  0 mm
13:09 67.4 °F /  19.7 °C 44.7 °F /  7.1 °C 30.03 in /  1016.8 hPa NW 2.3 mph /  3.7 km/h 2.3 mph /  3.7 km/h 44 % 0.00 in /  0 mm
13:14 67.9 °F /  19.9 °C 42.7 °F /  5.9 °C 30.03 in /  1016.8 hPa NW 2.3 mph /  3.7 km/h 2.3 mph /  3.7 km/h 40 % 0.00 in /  0 mm
13:19 68.0 °F /  20 °C 42.1 °F /  5.6 °C 30.03 in /  1016.8 hPa NW 2.0 mph /  3.2 km/h 2.0 mph /  3.2 km/h 39 % 0.00 in /  0 mm
13:24 68.4 °F /  20.2 °C 42.5 °F /  5.8 °C 30.03 in /  1016.8 hPa WNW 1.2 mph /  1.9 km/h 1.2 mph /  1.9 km/h 39 % 0.00 in /  0 mm
13:29 68.7 °F /  20.4 °C 45.3 °F /  7.4 °C 30.03 in /  1016.8 hPa WNW 3.5 mph /  5.6 km/h 3.5 mph /  5.6 km/h 43 % 0.00 in /  0 mm
13:34 69.3 °F /  20.7 °C 44.6 °F /  7 °C 30.02 in /  1016.5 hPa SE 1.2 mph /  1.9 km/h   41 % 0.00 in /  0 mm
13:39 69.6 °F /  20.9 °C 42.9 °F /  6.1 °C 30.02 in /  1016.5 hPa Calm   0.3 mph /  0.5 km/h 38 % 0.00 in /  0 mm
13:44 69.5 °F /  20.8 °C 42.1 °F /  5.6 °C 30.01 in /  1016.1 hPa NW 1.2 mph /  1.9 km/h   37 % 0.00 in /  0 mm
13:49 69.6 °F /  20.9 °C 42.9 °F /  6.1 °C 30.01 in /  1016.1 hPa Calm     38 % 0.00 in /  0 mm
13:54 70.0 °F /  21.1 °C 41.1 °F /  5.1 °C 30.01 in /  1016.1 hPa Calm     35 % 0.00 in /  0 mm
13:59 70.3 °F /  21.3 °C 41.3 °F /  5.2 °C 30.00 in /  1015.8 hPa WNW 1.2 mph /  1.9 km/h 1.2 mph /  1.9 km/h 35 % 0.00 in /  0 mm
14:04 70.3 °F /  21.3 °C 40.6 °F /  4.8 °C 30.01 in /  1016.1 hPa NW 1.2 mph /  1.9 km/h 1.2 mph /  1.9 km/h 34 % 0.00 in /  0 mm
14:10 70.2 °F /  21.2 °C 41.3 °F /  5.2 °C 30.01 in /  1016.1 hPa NW 2.3 mph /  3.7 km/h   35 % 0.00 in /  0 mm
14:15 70.2 °F /  21.2 °C 41.3 °F /  5.2 °C 30.01 in /  1016.1 hPa NW 2.3 mph /  3.7 km/h 2.3 mph /  3.7 km/h 35 % 0.00 in /  0 mm
14:20 70.3 °F /  21.3 °C 41.3 °F /  5.2 °C 30.00 in /  1015.8 hPa NW 1.2 mph /  1.9 km/h 1.2 mph /  1.9 km/h 35 % 0.00 in /  0 mm
14:25 70.3 °F /  21.3 °C 42.1 °F /  5.6 °C 30.00 in /  1015.8 hPa Calm     36 % 0.00 in /  0 mm
14:30 70.0 °F /  21.1 °C 41.8 °F /  5.4 °C 30.00 in /  1015.8 hPa NW 2.3 mph /  3.7 km/h 2.3 mph /  3.7 km/h 36 % 0.00 in /  0 mm
14:35 69.9 °F /  21.1 °C 42.4 °F /  5.8 °C 30.00 in /  1015.8 hPa WNW 1.2 mph /  1.9 km/h 1.2 mph /  1.9 km/h 37 % 0.00 in /  0 mm
14:40 69.9 °F /  21.1 °C 41.0 °F /  5 °C 30.00 in /  1015.8 hPa NNW 1.2 mph /  1.9 km/h 1.2 mph /  1.9 km/h 35 % 0.00 in /  0 mm
14:45 69.8 °F /  21 °C 40.9 °F /  4.9 °C 30.00 in /  1015.8 hPa Calm     35 % 0.00 in /  0 mm
14:50 69.9 °F /  21.1 °C 43.1 °F /  6.2 °C 30.00 in /  1015.8 hPa NW 1.2 mph /  1.9 km/h 1.2 mph /  1.9 km/h 38 % 0.00 in /  0 mm
14:55 70.0 °F /  21.1 °C 43.9 °F /  6.6 °C 30.00 in /  1015.8 hPa NW 1.2 mph /  1.9 km/h   39 % 0.00 in /  0 mm
15:00 70.5 °F /  21.4 °C 43.7 °F /  6.5 °C 30.00 in /  1015.8 hPa NW 1.2 mph /  1.9 km/h 1.2 mph /  1.9 km/h 38 % 0.00 in /  0 mm
15:05 70.7 °F /  21.5 °C 43.1 °F /  6.2 °C 30.00 in /  1015.8 hPa NW 1.2 mph /  1.9 km/h   37 % 0.00 in /  0 mm
15:10 70.9 °F /  21.6 °C 44.0 °F /  6.7 °C 29.99 in /  1015.5 hPa NW 2.3 mph /  3.7 km/h 2.3 mph /  3.7 km/h 38 % 0.00 in /  0 mm
15:15 71.1 °F /  21.7 °C 42.8 °F /  6 °C 29.99 in /  1015.5 hPa NW 1.2 mph /  1.9 km/h 1.2 mph /  1.9 km/h 36 % 0.00 in /  0 mm
15:20 71.3 °F /  21.8 °C 44.4 °F /  6.9 °C 29.99 in /  1015.5 hPa SE 1.2 mph /  1.9 km/h   38 % 0.00 in /  0 mm
15:25 71.7 °F /  22.1 °C 43.3 °F /  6.3 °C 29.98 in /  1015.1 hPa NW 1.2 mph /  1.9 km/h 1.2 mph /  1.9 km/h 36 % 0.00 in /  0 mm
15:30 71.7 °F /  22.1 °C 41.8 °F /  5.4 °C 29.99 in /  1015.5 hPa NW 1.0 mph /  1.6 km/h 1.0 mph /  1.6 km/h 34 % 0.00 in /  0 mm
15:35 71.7 °F /  22.1 °C 41.0 °F /  5 °C 29.98 in /  1015.1 hPa WNW 2.3 mph /  3.7 km/h 2.3 mph /  3.7 km/h 33 % 0.00 in /  0 mm
15:40 71.8 °F /  22.1 °C 41.1 °F /  5.1 °C 29.98 in /  1015.1 hPa NW 1.2 mph /  1.9 km/h 1.2 mph /  1.9 km/h 33 % 0.00 in /  0 mm
15:45 71.8 °F /  22.1 °C 41.1 °F /  5.1 °C 29.98 in /  1015.1 hPa NW 1.2 mph /  1.9 km/h 1.2 mph /  1.9 km/h 33 % 0.00 in /  0 mm
15:50 71.8 °F /  22.1 °C 40.3 °F /  4.6 °C 29.98 in /  1015.1 hPa Calm     32 % 0.00 in /  0 mm
15:55 71.8 °F /  22.1 °C 41.1 °F /  5.1 °C 29.98 in /  1015.1 hPa NW 1.2 mph /  1.9 km/h 1.2 mph /  1.9 km/h 33 % 0.00 in /  0 mm
16:00 71.9 °F /  22.2 °C 40.4 °F /  4.7 °C 29.98 in /  1015.1 hPa Calm     32 % 0.00 in /  0 mm
16:05 71.8 °F /  22.1 °C 40.3 °F /  4.6 °C 29.98 in /  1015.1 hPa NW 1.2 mph /  1.9 km/h 1.2 mph /  1.9 km/h 32 % 0.00 in /  0 mm
16:10 71.7 °F /  22.1 °C 40.3 °F /  4.6 °C 29.98 in /  1015.1 hPa Calm   0.2 mph /  0.3 km/h 32 % 0.00 in /  0 mm
16:15 71.8 °F /  22.1 °C 42.7 °F /  5.9 °C 29.99 in /  1015.5 hPa WNW 1.2 mph /  1.9 km/h   35 % 0.00 in /  0 mm
16:20 71.8 °F /  22.1 °C 41.1 °F /  5.1 °C 29.99 in /  1015.5 hPa Calm     33 % 0.00 in /  0 mm
16:25 71.7 °F /  22.1 °C 42.6 °F /  5.9 °C 29.99 in /  1015.5 hPa Calm     35 % 0.00 in /  0 mm
16:30 71.6 °F /  22 °C 42.5 °F /  5.8 °C 29.99 in /  1015.5 hPa West 1.2 mph /  1.9 km/h 1.2 mph /  1.9 km/h 35 % 0.00 in /  0 mm
16:35 71.4 °F /  21.9 °C 41.6 °F /  5.3 °C 29.98 in /  1015.1 hPa NW 1.2 mph /  1.9 km/h 1.2 mph /  1.9 km/h 34 % 0.00 in /  0 mm
16:40 71.3 °F /  21.8 °C 41.5 °F /  5.3 °C 29.98 in /  1015.1 hPa NW 1.2 mph /  1.9 km/h 1.2 mph /  1.9 km/h 34 % 0.00 in /  0 mm
16:45 71.2 °F /  21.8 °C 41.4 °F /  5.2 °C 29.99 in /  1015.5 hPa Calm     34 % 0.00 in /  0 mm
16:50 71.1 °F /  21.7 °C 41.3 °F /  5.2 °C 29.99 in /  1015.5 hPa Calm     34 % 0.00 in /  0 mm
16:55 70.9 °F /  21.6 °C 41.1 °F /  5.1 °C 29.99 in /  1015.5 hPa NW 1.2 mph /  1.9 km/h   34 % 0.00 in /  0 mm
17:00 70.7 °F /  21.5 °C 41.7 °F /  5.4 °C 29.99 in /  1015.5 hPa Calm   0.1 mph /  0.2 km/h 35 % 0.00 in /  0 mm
17:05 70.4 °F /  21.3 °C 42.9 °F /  6.1 °C 29.99 in /  1015.5 hPa West 1.2 mph /  1.9 km/h 1.2 mph /  1.9 km/h 37 % 0.00 in /  0 mm
17:10 70.1 °F /  21.2 °C 42.6 °F /  5.9 °C 29.99 in /  1015.5 hPa Calm     37 % 0.00 in /  0 mm
17:15 69.7 °F /  20.9 °C 42.9 °F /  6.1 °C 29.99 in /  1015.5 hPa Calm     38 % 0.00 in /  0 mm
17:20 69.3 °F /  20.7 °C 42.6 °F /  5.9 °C 29.99 in /  1015.5 hPa Calm     38 % 0.00 in /  0 mm
17:25 68.9 °F /  20.5 °C 44.2 °F /  6.8 °C 29.99 in /  1015.5 hPa Calm     41 % 0.00 in /  0 mm
17:30 68.3 °F /  20.2 °C 44.9 °F /  7.2 °C 29.99 in /  1015.5 hPa Calm     43 % 0.00 in /  0 mm
17:35 67.7 °F /  19.8 °C 45.0 °F /  7.2 °C 29.99 in /  1015.5 hPa Calm     44 % 0.00 in /  0 mm
17:40 67.0 °F /  19.4 °C 45.5 °F /  7.5 °C 29.99 in /  1015.5 hPa Calm     46 % 0.00 in /  0 mm
17:45 66.4 °F /  19.1 °C 45.5 °F /  7.5 °C 29.99 in /  1015.5 hPa Calm     47 % 0.00 in /  0 mm
17:50 65.7 °F /  18.7 °C 46.0 °F /  7.8 °C 29.99 in /  1015.5 hPa Calm     49 % 0.00 in /  0 mm
17:55 64.9 °F /  18.3 °C 45.8 °F /  7.7 °C 29.99 in /  1015.5 hPa Calm     50 % 0.00 in /  0 mm
18:00 64.1 °F /  17.8 °C 46.1 °F /  7.8 °C 30.00 in /  1015.8 hPa Calm     52 % 0.00 in /  0 mm
18:05 63.3 °F /  17.4 °C 46.4 °F /  8 °C 30.00 in /  1015.8 hPa Calm     54 % 0.00 in /  0 mm
18:10 62.5 °F /  16.9 °C 46.6 °F /  8.1 °C 30.00 in /  1015.8 hPa Calm     56 % 0.00 in /  0 mm
18:15 61.7 °F /  16.5 °C 46.8 °F /  8.2 °C 30.00 in /  1015.8 hPa Calm     58 % 0.00 in /  0 mm
18:20 61.2 °F /  16.2 °C 46.8 °F /  8.2 °C 30.00 in /  1015.8 hPa Calm     59 % 0.00 in /  0 mm
18:25 60.9 °F /  16.1 °C 46.5 °F /  8.1 °C 30.00 in /  1015.8 hPa Calm     59 % 0.00 in /  0 mm
18:30 60.4 °F /  15.8 °C 46.4 °F /  8 °C 29.99 in /  1015.5 hPa Calm     60 % 0.00 in /  0 mm
18:35 59.9 °F /  15.5 °C 47.7 °F /  8.7 °C 30.00 in /  1015.8 hPa Calm     64 % 0.00 in /  0 mm
18:41 59.7 °F /  15.4 °C 47.1 °F /  8.4 °C 30.00 in /  1015.8 hPa Calm     63 % 0.00 in /  0 mm
18:46 59.2 °F /  15.1 °C 46.2 °F /  7.9 °C 30.00 in /  1015.8 hPa Calm     62 % 0.00 in /  0 mm
18:51 58.6 °F /  14.8 °C 46.9 °F /  8.3 °C 30.00 in /  1015.8 hPa Calm     65 % 0.00 in /  0 mm
18:56 58.0 °F /  14.4 °C 46.7 °F /  8.2 °C 30.00 in /  1015.8 hPa Calm     66 % 0.00 in /  0 mm
19:01 57.4 °F /  14.1 °C 46.9 °F /  8.3 °C 30.00 in /  1015.8 hPa Calm     68 % 0.00 in /  0 mm
19:06 56.8 °F /  13.8 °C 46.3 °F /  7.9 °C 30.00 in /  1015.8 hPa Calm     68 % 0.00 in /  0 mm
19:11 56.3 °F /  13.5 °C 46.6 °F /  8.1 °C 30.00 in /  1015.8 hPa Calm     70 % 0.00 in /  0 mm
19:16 55.8 °F /  13.2 °C 46.2 °F /  7.9 °C 30.00 in /  1015.8 hPa Calm     70 % 0.00 in /  0 mm
19:21 55.3 °F /  12.9 °C 45.7 °F /  7.6 °C 30.00 in /  1015.8 hPa Calm     70 % 0.00 in /  0 mm
19:26 54.9 °F /  12.7 °C 45.7 °F /  7.6 °C 30.01 in /  1016.1 hPa Calm     71 % 0.00 in /  0 mm
19:31 54.9 °F /  12.7 °C 46.4 °F /  8 °C 30.01 in /  1016.1 hPa Calm     73 % 0.00 in /  0 mm
19:36 54.9 °F /  12.7 °C 45.7 °F /  7.6 °C 30.01 in /  1016.1 hPa Calm     71 % 0.00 in /  0 mm
19:41 54.5 °F /  12.5 °C 45.7 °F /  7.6 °C 30.02 in /  1016.5 hPa Calm     72 % 0.00 in /  0 mm
19:46 54.0 °F /  12.2 °C 45.5 °F /  7.5 °C 30.02 in /  1016.5 hPa Calm     73 % 0.00 in /  0 mm
19:51 53.5 °F /  11.9 °C 45.4 °F /  7.4 °C 30.02 in /  1016.5 hPa Calm     74 % 0.00 in /  0 mm
19:56 53.2 °F /  11.8 °C 45.5 °F /  7.5 °C 30.02 in /  1016.5 hPa Calm     75 % 0.00 in /  0 mm
20:01 53.2 °F /  11.8 °C 44.8 °F /  7.1 °C 30.02 in /  1016.5 hPa Calm     73 % 0.00 in /  0 mm
20:06 53.7 °F /  12.1 °C 44.9 °F /  7.2 °C 30.03 in /  1016.8 hPa Calm     72 % 0.00 in /  0 mm
20:11 53.9 °F /  12.2 °C 44.0 °F /  6.7 °C 30.03 in /  1016.8 hPa Calm     69 % 0.00 in /  0 mm
20:16 54.3 °F /  12.4 °C 43.6 °F /  6.4 °C 30.03 in /  1016.8 hPa Calm     67 % 0.00 in /  0 mm
20:21 54.2 °F /  12.3 °C 43.9 °F /  6.6 °C 30.03 in /  1016.8 hPa Calm     68 % 0.00 in /  0 mm
20:26 53.8 °F /  12.1 °C 43.9 °F /  6.6 °C 30.04 in /  1017.2 hPa Calm     69 % 0.00 in /  0 mm
20:31 53.0 °F /  11.7 °C 43.5 °F /  6.4 °C 30.04 in /  1017.2 hPa Calm     70 % 0.00 in /  0 mm
20:36 52.2 °F /  11.2 °C 44.2 °F /  6.8 °C 30.05 in /  1017.5 hPa Calm     74 % 0.00 in /  0 mm
20:41 51.9 °F /  11.1 °C 43.9 °F /  6.6 °C 30.05 in /  1017.5 hPa Calm     74 % 0.00 in /  0 mm
20:46 51.5 °F /  10.8 °C 43.8 °F /  6.6 °C 30.05 in /  1017.5 hPa Calm     75 % 0.00 in /  0 mm
20:51 50.8 °F /  10.4 °C 43.8 °F /  6.6 °C 30.06 in /  1017.8 hPa Calm     77 % 0.00 in /  0 mm
20:56 50.6 °F /  10.3 °C 44.0 °F /  6.7 °C 30.06 in /  1017.8 hPa Calm     78 % 0.00 in /  0 mm
21:01 50.5 °F /  10.3 °C 43.6 °F /  6.4 °C 30.06 in /  1017.8 hPa Calm     77 % 0.00 in /  0 mm
21:06 50.4 °F /  10.2 °C 43.8 °F /  6.6 °C 30.06 in /  1017.8 hPa Calm     78 % 0.00 in /  0 mm
21:11 50.3 °F /  10.2 °C 43.7 °F /  6.5 °C 30.06 in /  1017.8 hPa Calm     78 % 0.00 in /  0 mm
21:16 50.1 °F /  10.1 °C 43.5 °F /  6.4 °C 30.07 in /  1018.2 hPa Calm     78 % 0.00 in /  0 mm
21:21 49.6 °F /  9.8 °C 43.4 °F /  6.3 °C 30.07 in /  1018.2 hPa Calm     79 % 0.00 in /  0 mm
21:26 49.2 °F /  9.6 °C 43.3 °F /  6.3 °C 30.07 in /  1018.2 hPa Calm     80 % 0.00 in /  0 mm
21:31 48.9 °F /  9.4 °C 43.6 °F /  6.4 °C 30.07 in /  1018.2 hPa Calm     82 % 0.00 in /  0 mm
21:36 49.1 °F /  9.5 °C 43.8 °F /  6.6 °C 30.07 in /  1018.2 hPa Calm     82 % 0.00 in /  0 mm
21:41 49.1 °F /  9.5 °C 43.5 °F /  6.4 °C 30.07 in /  1018.2 hPa Calm     81 % 0.00 in /  0 mm
21:46 48.9 °F /  9.4 °C 43.6 °F /  6.4 °C 30.07 in /  1018.2 hPa Calm     82 % 0.00 in /  0 mm
21:51 48.8 °F /  9.3 °C 43.9 °F /  6.6 °C 30.07 in /  1018.2 hPa Calm     83 % 0.00 in /  0 mm
21:56 48.9 °F /  9.4 °C 44.0 °F /  6.7 °C 30.07 in /  1018.2 hPa Calm     83 % 0.00 in /  0 mm
22:01 48.9 °F /  9.4 °C 44.0 °F /  6.7 °C 30.07 in /  1018.2 hPa Calm     83 % 0.00 in /  0 mm
22:06 49.0 °F /  9.4 °C 44.1 °F /  6.7 °C 30.07 in /  1018.2 hPa Calm     83 % 0.00 in /  0 mm
22:11 49.0 °F /  9.4 °C 44.1 °F /  6.7 °C 30.07 in /  1018.2 hPa Calm     83 % 0.00 in /  0 mm
22:16 49.0 °F /  9.4 °C 44.1 °F /  6.7 °C 30.07 in /  1018.2 hPa Calm     83 % 0.00 in /  0 mm
22:21 49.0 °F /  9.4 °C 44.1 °F /  6.7 °C 30.07 in /  1018.2 hPa Calm     83 % 0.00 in /  0 mm
22:26 48.8 °F /  9.3 °C 43.5 °F /  6.4 °C 30.07 in /  1018.2 hPa Calm     82 % 0.00 in /  0 mm
22:31 48.8 °F /  9.3 °C 43.5 °F /  6.4 °C 30.07 in /  1018.2 hPa Calm     82 % 0.00 in /  0 mm
22:36 48.6 °F /  9.2 °C 43.4 °F /  6.3 °C 30.07 in /  1018.2 hPa Calm     82 % 0.00 in /  0 mm
22:41 48.5 °F /  9.2 °C 43.6 °F /  6.4 °C 30.07 in /  1018.2 hPa Calm     83 % 0.00 in /  0 mm
22:46 48.5 °F /  9.2 °C 43.6 °F /  6.4 °C 30.06 in /  1017.8 hPa Calm     83 % 0.00 in /  0 mm
22:51 48.6 °F /  9.2 °C 43.7 °F /  6.5 °C 30.06 in /  1017.8 hPa Calm     83 % 0.00 in /  0 mm
22:56 48.8 °F /  9.3 °C 43.2 °F /  6.2 °C 30.07 in /  1018.2 hPa Calm     81 % 0.00 in /  0 mm
23:01 48.3 °F /  9.1 °C 42.4 °F /  5.8 °C 30.07 in /  1018.2 hPa Calm     80 % 0.00 in /  0 mm
23:06 47.3 °F /  8.5 °C 41.8 °F /  5.4 °C 30.07 in /  1018.2 hPa Calm     81 % 0.00 in /  0 mm
23:11 46.6 °F /  8.1 °C 41.4 °F /  5.2 °C 30.07 in /  1018.2 hPa Calm     82 % 0.00 in /  0 mm
23:16 46.2 °F /  7.9 °C 41.3 °F /  5.2 °C 30.07 in /  1018.2 hPa Calm     83 % 0.00 in /  0 mm
23:21 46.0 °F /  7.8 °C 41.7 °F /  5.4 °C 30.07 in /  1018.2 hPa Calm     85 % 0.00 in /  0 mm
23:26 45.9 °F /  7.7 °C 41.9 °F /  5.5 °C 30.07 in /  1018.2 hPa Calm     86 % 0.00 in /  0 mm
23:31 45.9 °F /  7.7 °C 41.9 °F /  5.5 °C 30.07 in /  1018.2 hPa Calm     86 % 0.00 in /  0 mm
23:36 45.9 °F /  7.7 °C 41.9 °F /  5.5 °C 30.06 in /  1017.8 hPa Calm     86 % 0.00 in /  0 mm
23:41 45.8 °F /  7.7 °C 41.9 °F /  5.5 °C 30.07 in /  1018.2 hPa Calm     86 % 0.00 in /  0 mm
23:46 45.7 °F /  7.6 °C 41.8 °F /  5.4 °C 30.07 in /  1018.2 hPa Calm     86 % 0.00 in /  0 mm
23:51 45.9 °F /  7.7 °C 41.9 °F /  5.5 °C 30.07 in /  1018.2 hPa Calm     86 % 0.00 in /  0 mm
23:56 45.8 °F /  7.7 °C 41.9 °F /  5.5 °C 30.07 in /  1018.2 hPa Calm     86 % 0.00 in /  0 mm
Park Place, Exeter, Tulare County, California, USA
Compliments of Weather Underground - 2.75 mb